createdAt,value
2017-05-01T00:09:42.415Z,11.27
2017-05-01T00:19:42.437Z,10.99
2017-05-01T00:29:42.840Z,11.11
2017-05-01T00:39:42.474Z,10.73
2017-05-01T00:49:42.534Z,10.66
2017-05-01T00:59:42.500Z,10.65
2017-05-01T01:09:44.690Z,10.44
2017-05-01T01:19:42.517Z,10.58
2017-05-01T01:29:42.485Z,10.37
2017-05-01T01:39:42.535Z,10.37
2017-05-01T01:49:42.600Z,10.14
2017-05-01T01:59:42.519Z,9.82
2017-05-01T02:09:42.649Z,9.71
2017-05-01T02:19:42.529Z,9.49
2017-05-01T02:29:42.631Z,9.42
2017-05-01T02:39:42.524Z,9.28
2017-05-01T02:49:42.569Z,9.43
2017-05-01T02:59:42.647Z,9.32
2017-05-01T03:09:42.576Z,9.39
2017-05-01T03:19:42.580Z,9.46
2017-05-01T03:29:42.576Z,9.34
2017-05-01T03:39:42.653Z,9.49
2017-05-01T03:49:42.609Z,9.53
2017-05-01T03:59:42.596Z,9.66
2017-05-01T04:09:42.650Z,9.58
2017-05-01T04:19:42.634Z,9.79
2017-05-01T04:29:42.641Z,9.78
2017-05-01T04:39:42.732Z,9.83
2017-05-01T04:49:42.697Z,10.03
2017-05-01T04:59:42.644Z,10.36
2017-05-01T05:09:42.652Z,10.46
2017-05-01T05:19:42.670Z,10.65
2017-05-01T05:29:42.671Z,10.98
2017-05-01T05:39:42.710Z,11.17
2017-05-01T05:49:42.694Z,11.31
2017-05-01T05:59:42.716Z,11.52
2017-05-01T06:09:42.701Z,11.74
2017-05-01T06:19:42.705Z,11.89
2017-05-01T06:29:42.813Z,12.3
2017-05-01T06:39:42.738Z,12.44
2017-05-01T06:49:42.853Z,12.67
2017-05-01T06:59:42.780Z,12.79
2017-05-01T07:09:42.780Z,12.79
2017-05-01T07:19:42.775Z,13.17
2017-05-01T07:29:42.781Z,13.8
2017-05-01T07:39:42.847Z,14.81
2017-05-01T07:49:42.864Z,15.01
2017-05-01T07:59:42.850Z,15.35
2017-05-01T08:09:42.819Z,15.26
2017-05-01T08:19:42.886Z,15.54
2017-05-01T08:29:42.863Z,16.26
2017-05-01T08:39:42.862Z,16.98
2017-05-01T08:49:42.882Z,17.32
2017-05-01T08:59:42.855Z,17.79
2017-05-01T09:09:42.913Z,17.89
2017-05-01T09:19:42.861Z,18.67
2017-05-01T09:29:42.933Z,18.64
2017-05-01T09:39:42.857Z,18.5
2017-05-01T09:49:42.953Z,18.21
2017-05-01T09:59:42.926Z,17.87
2017-05-01T10:09:42.896Z,17.06
2017-05-01T10:19:42.867Z,16.48
2017-05-01T10:29:42.896Z,16.41
2017-05-01T10:39:42.876Z,16.4
2017-05-01T10:49:42.913Z,16.83
2017-05-01T10:59:42.969Z,16.67
2017-05-01T11:09:42.932Z,16.58
2017-05-01T11:19:42.866Z,16.41
2017-05-01T11:29:42.890Z,16.22
2017-05-01T11:39:42.880Z,15.75
2017-05-01T11:49:43.000Z,15.51
2017-05-01T11:59:42.980Z,15.59
2017-05-01T12:09:42.912Z,15.57
2017-05-01T12:19:42.881Z,15.26
2017-05-01T12:29:42.922Z,15.39
2017-05-01T12:39:42.970Z,15.96
2017-05-01T12:49:42.940Z,16.25
2017-05-01T12:59:42.918Z,16.34
2017-05-01T13:09:42.917Z,16.59
2017-05-01T13:19:42.874Z,16.18
2017-05-01T13:29:42.946Z,16.35
2017-05-01T13:39:42.907Z,16.74
2017-05-01T13:49:43.003Z,16.41
2017-05-01T13:59:42.996Z,15.78
2017-05-01T14:09:42.889Z,15.42
2017-05-01T14:19:42.922Z,14.54
2017-05-01T14:29:42.901Z,14.14
2017-05-01T14:39:42.952Z,14.16
2017-05-01T14:49:43.009Z,14.12
2017-05-01T14:59:42.905Z,13.95
2017-05-01T15:09:42.911Z,13.4
2017-05-01T15:19:42.979Z,12.74
2017-05-01T15:29:42.909Z,12.66
2017-05-01T15:39:42.948Z,12.96
2017-05-01T15:50:04.656Z,12.71
2017-05-01T16:00:04.647Z,12.69
2017-05-01T16:10:04.704Z,12.63
2017-05-01T16:20:04.793Z,12.6
2017-05-01T16:30:04.689Z,12.6
2017-05-01T16:40:04.661Z,12.75
2017-05-01T16:50:04.685Z,12.67
2017-05-01T17:00:04.834Z,12.41
2017-05-01T17:10:04.708Z,12.44
2017-05-01T17:20:04.750Z,12.23
2017-05-01T17:30:04.757Z,12.27
2017-05-01T17:40:04.765Z,12.13
2017-05-01T17:50:04.763Z,12.19
2017-05-01T18:00:04.846Z,12.09
2017-05-01T18:10:04.821Z,12.09
2017-05-01T18:20:04.865Z,12.01
2017-05-01T18:30:04.779Z,11.94
2017-05-01T18:40:04.829Z,11.71
2017-05-01T18:50:04.871Z,11.52
2017-05-01T19:00:04.988Z,11.38
2017-05-01T19:10:04.847Z,11.27
2017-05-01T19:20:04.842Z,11.07
2017-05-01T19:30:04.866Z,11.02
2017-05-01T19:40:05.028Z,10.78
2017-05-01T19:50:04.872Z,10.76
2017-05-01T20:00:04.965Z,10.44
2017-05-01T20:10:04.917Z,10.52
2017-05-01T20:20:04.881Z,10.52
2017-05-01T20:30:04.957Z,10.52
2017-05-01T20:40:04.919Z,10.52
2017-05-01T20:50:04.974Z,10.51
2017-05-01T21:00:05.063Z,10.44
2017-05-01T21:10:04.978Z,10.56
2017-05-01T21:20:04.922Z,10.43
2017-05-01T21:30:04.941Z,10.42
2017-05-01T21:40:04.989Z,10.4
2017-05-01T21:50:04.981Z,10.4
2017-05-01T22:00:05.186Z,10.36
2017-05-01T22:10:05.098Z,10.37
2017-05-01T22:20:05.022Z,10.37
2017-05-01T22:30:05.263Z,10.32
2017-05-01T22:40:05.237Z,10.28
2017-05-01T22:50:05.217Z,10.33
2017-05-01T23:00:05.330Z,10.24
2017-05-01T23:10:05.167Z,10.28
2017-05-01T23:20:05.086Z,10.3
2017-05-01T23:30:05.173Z,10.17
2017-05-01T23:40:05.038Z,10.1
2017-05-01T23:50:05.094Z,10.22
